< < Back
Terminal Aerodrome Forecast


Current Version              Previous Versions:   1  2  3  4  5  6  7  8  9  

Terminal Aerodrome Forecast

932
FTUS44 KOHX 032329
TAFBNA
TAF
KBNA 032329Z 0400/0424 VRB03KT P6SM SCT050
      TEMPO 0409/0413 3SM BR=

Latest METAR

391
SAUS70 KWBC 041500 RRJ
MTRBNA
METAR KBNA 041453Z 10003KT 10SM CLR 30/19 A3006 RMK AO2 SLP172 T03000194
51008


USA.gov is the U.S. government's official web portal to all federal, state and local government web resources and services.